Time,TemperatureF,DewpointF,PressureIn,WindDirection,WindDirectionDegrees,WindSpeedMPH,WindSpeedGustMPH,Humidity,HourlyPrecipIn,Conditions,Clouds,dailyrainin,SolarRadiationWatts/m^2,SoftwareType,DateUTC
2013-08-10 00:02:00,52.0,44.0,-100.00,NNW,342,9.0,16.0,75,0.00,,,0.00,0.000000,,2013-08-10 06:02:00,
2013-08-10 00:11:00,52.0,44.0,-100.00,NNW,342,9.0,16.0,75,0.00,,,0.00,0.000000,,2013-08-10 06:11:00,
2013-08-10 00:22:00,52.0,44.0,-100.00,NNW,342,9.0,16.0,75,0.00,,,0.00,0.000000,,2013-08-10 06:22:00,
2013-08-10 00:32:00,52.0,44.0,-100.00,NNW,342,9.0,16.0,75,0.00,,,0.00,0.000000,,2013-08-10 06:32:00,
2013-08-10 01:02:00,53.0,46.0,-100.00,NNE,28,8.0,14.0,77,0.00,,,0.00,0.000000,,2013-08-10 07:02:00,
2013-08-10 01:12:00,53.0,46.0,-100.00,NNE,28,8.0,14.0,77,0.00,,,0.00,0.000000,,2013-08-10 07:12:00,
2013-08-10 01:22:00,53.0,46.0,-100.00,NNE,28,8.0,14.0,77,0.00,,,0.00,0.000000,,2013-08-10 07:22:00,
2013-08-10 01:33:00,53.0,46.0,-100.00,NNE,28,8.0,14.0,77,0.00,,,0.00,0.000000,,2013-08-10 07:33:00,
2013-08-10 02:01:00,48.0,44.0,-100.00,NNW,330,3.0,11.0,85,0.00,,,0.00,0.000000,,2013-08-10 08:01:00,
2013-08-10 02:12:00,48.0,44.0,-100.00,NNW,330,3.0,11.0,85,0.00,,,0.00,0.000000,,2013-08-10 08:12:00,
2013-08-10 02:22:00,48.0,44.0,-100.00,NNW,330,3.0,11.0,85,0.00,,,0.00,0.000000,,2013-08-10 08:22:00,
2013-08-10 02:32:00,48.0,44.0,-100.00,NNW,330,3.0,11.0,85,0.00,,,0.00,0.000000,,2013-08-10 08:32:00,
2013-08-10 03:02:00,45.0,43.0,-100.00,NNE,14,7.0,9.0,91,0.00,,,0.00,0.000000,,2013-08-10 09:02:00,
2013-08-10 03:12:00,45.0,43.0,-100.00,NNE,14,7.0,9.0,91,0.00,,,0.00,0.000000,,2013-08-10 09:12:00,
2013-08-10 03:22:00,45.0,43.0,-100.00,NNE,14,7.0,9.0,91,0.00,,,0.00,0.000000,,2013-08-10 09:22:00,
2013-08-10 03:32:00,45.0,43.0,-100.00,NNE,14,7.0,9.0,91,0.00,,,0.00,0.000000,,2013-08-10 09:32:00,
2013-08-10 04:02:00,43.0,40.0,-100.00,North,8,5.0,9.0,90,0.00,,,0.00,0.000000,,2013-08-10 10:02:00,
2013-08-10 04:11:00,43.0,40.0,-100.00,North,8,5.0,9.0,90,0.00,,,0.00,0.000000,,2013-08-10 10:11:00,
2013-08-10 04:22:00,43.0,40.0,-100.00,North,8,5.0,9.0,90,0.00,,,0.00,0.000000,,2013-08-10 10:22:00,
2013-08-10 04:33:00,43.0,40.0,-100.00,North,8,5.0,9.0,90,0.00,,,0.00,0.000000,,2013-08-10 10:33:00,
2013-08-10 08:02:00,45.0,42.0,-100.00,North,355,2.0,7.0,90,-99.99,,,0.00,67.000000,,2013-08-10 14:02:00,
2013-08-10 08:12:00,45.0,42.0,-100.00,North,355,2.0,7.0,90,-99.99,,,0.00,67.000000,,2013-08-10 14:12:00,
2013-08-10 08:22:00,45.0,42.0,-100.00,North,355,2.0,7.0,90,-99.99,,,0.00,67.000000,,2013-08-10 14:22:00,
2013-08-10 08:32:00,45.0,42.0,-100.00,North,355,2.0,7.0,90,-99.99,,,0.00,67.000000,,2013-08-10 14:32:00,
2013-08-10 09:02:00,58.0,44.0,-100.00,South,171,6.0,9.0,60,-99.99,,,0.00,255.000000,,2013-08-10 15:02:00,
2013-08-10 09:11:00,58.0,44.0,-100.00,South,171,6.0,9.0,60,-99.99,,,0.00,255.000000,,2013-08-10 15:11:00,
2013-08-10 09:22:00,58.0,44.0,-100.00,South,171,6.0,9.0,60,-99.99,,,0.00,255.000000,,2013-08-10 15:22:00,
2013-08-10 09:33:00,58.0,44.0,-100.00,South,171,6.0,9.0,60,-99.99,,,0.00,255.000000,,2013-08-10 15:33:00,
2013-08-10 10:01:00,63.0,42.0,-100.00,SSE,164,8.0,12.0,47,0.00,,,0.00,451.000000,,2013-08-10 16:01:00,
2013-08-10 10:11:00,63.0,42.0,-100.00,SSE,164,8.0,12.0,47,0.00,,,0.00,451.000000,,2013-08-10 16:11:00,
2013-08-10 10:22:00,63.0,42.0,-100.00,SSE,164,8.0,12.0,47,0.00,,,0.00,451.000000,,2013-08-10 16:22:00,
2013-08-10 10:32:00,63.0,42.0,-100.00,SSE,164,8.0,12.0,47,0.00,,,0.00,451.000000,,2013-08-10 16:32:00,
2013-08-10 11:02:00,65.0,42.0,-100.00,SSE,156,13.0,20.0,43,0.00,,,0.00,644.000000,,2013-08-10 17:02:00,
2013-08-10 11:12:00,65.0,42.0,-100.00,SSE,156,13.0,20.0,43,0.00,,,0.00,644.000000,,2013-08-10 17:12:00,
2013-08-10 11:22:00,65.0,42.0,-100.00,SSE,156,13.0,20.0,43,0.00,,,0.00,644.000000,,2013-08-10 17:22:00,
2013-08-10 11:33:00,65.0,42.0,-100.00,SSE,156,13.0,20.0,43,0.00,,,0.00,644.000000,,2013-08-10 17:33:00,
2013-08-10 12:01:00,66.0,42.0,-100.00,SSE,148,12.0,23.0,42,0.00,,,0.00,791.000000,,2013-08-10 18:01:00,
2013-08-10 12:11:00,66.0,42.0,-100.00,SSE,148,12.0,23.0,42,0.00,,,0.00,791.000000,,2013-08-10 18:11:00,
2013-08-10 12:23:00,66.0,42.0,-100.00,SSE,148,12.0,23.0,42,0.00,,,0.00,791.000000,,2013-08-10 18:23:00,
2013-08-10 12:32:00,66.0,42.0,-100.00,SSE,148,12.0,23.0,42,0.00,,,0.00,791.000000,,2013-08-10 18:32:00,
2013-08-10 13:02:00,67.0,42.0,-100.00,South,169,10.0,19.0,40,0.00,,,0.00,847.000000,,2013-08-10 19:02:00,
2013-08-10 13:11:00,67.0,42.0,-100.00,South,169,10.0,19.0,40,0.00,,,0.00,847.000000,,2013-08-10 19:11:00,
2013-08-10 13:22:00,67.0,42.0,-100.00,South,169,10.0,19.0,40,0.00,,,0.00,847.000000,,2013-08-10 19:22:00,
2013-08-10 13:32:00,67.0,42.0,-100.00,South,169,10.0,19.0,40,0.00,,,0.00,847.000000,,2013-08-10 19:32:00,
2013-08-10 14:02:00,69.0,42.0,-100.00,SE,142,11.0,18.0,37,0.00,,,0.00,703.000000,,2013-08-10 20:02:00,
2013-08-10 14:11:00,69.0,42.0,-100.00,SE,142,11.0,18.0,37,0.00,,,0.00,703.000000,,2013-08-10 20:11:00,
2013-08-10 14:22:00,69.0,42.0,-100.00,SE,142,11.0,18.0,37,0.00,,,0.00,703.000000,,2013-08-10 20:22:00,
2013-08-10 15:12:00,70.0,43.0,-100.00,South,173,10.0,16.0,37,0.00,,,0.00,309.000000,,2013-08-10 21:12:00,
2013-08-10 15:22:00,70.0,43.0,-100.00,South,173,10.0,16.0,37,0.00,,,0.00,309.000000,,2013-08-10 21:22:00,
2013-08-10 15:32:00,70.0,43.0,-100.00,South,173,10.0,16.0,37,0.00,,,0.00,309.000000,,2013-08-10 21:32:00,
2013-08-10 16:01:00,72.0,38.0,-100.00,SE,146,9.0,20.0,29,0.00,,,0.00,886.000000,,2013-08-10 22:01:00,
2013-08-10 16:11:00,72.0,38.0,-100.00,SE,146,9.0,20.0,29,0.00,,,0.00,886.000000,,2013-08-10 22:11:00,
2013-08-10 16:21:00,72.0,38.0,-100.00,SE,146,9.0,20.0,29,0.00,,,0.00,886.000000,,2013-08-10 22:21:00,
2013-08-10 16:32:00,72.0,38.0,-100.00,SE,146,9.0,20.0,29,0.00,,,0.00,886.000000,,2013-08-10 22:32:00,
2013-08-10 17:01:00,69.0,32.0,-100.00,South,179,10.0,18.0,25,0.00,,,0.00,450.000000,,2013-08-10 23:01:00,
2013-08-10 17:12:00,69.0,32.0,-100.00,South,179,10.0,18.0,25,0.00,,,0.00,450.000000,,2013-08-10 23:12:00,
2013-08-10 17:22:00,69.0,32.0,-100.00,South,179,10.0,18.0,25,0.00,,,0.00,450.000000,,2013-08-10 23:22:00,
2013-08-10 17:32:00,69.0,32.0,-100.00,South,179,10.0,18.0,25,0.00,,,0.00,450.000000,,2013-08-10 23:32:00,
2013-08-10 18:02:00,56.0,47.0,-100.00,WNW,302,9.0,26.0,71,0.02,,,0.02,42.000000,,2013-08-11 00:02:00,
2013-08-10 18:11:00,56.0,47.0,-100.00,WNW,302,9.0,26.0,71,0.02,,,0.02,42.000000,,2013-08-11 00:11:00,
2013-08-10 18:22:00,56.0,47.0,-100.00,WNW,302,9.0,26.0,71,0.02,,,0.02,42.000000,,2013-08-11 00:22:00,
2013-08-10 18:32:00,56.0,47.0,-100.00,WNW,302,9.0,26.0,71,0.02,,,0.02,42.000000,,2013-08-11 00:32:00,
2013-08-10 19:01:00,57.0,43.0,-100.00,NE,55,4.0,13.0,60,0.00,,,0.02,37.000000,,2013-08-11 01:01:00,
2013-08-10 19:11:00,57.0,43.0,-100.00,NE,55,4.0,13.0,60,0.00,,,0.02,37.000000,,2013-08-11 01:11:00,
2013-08-10 19:22:00,57.0,43.0,-100.00,NE,55,4.0,13.0,60,0.00,,,0.02,37.000000,,2013-08-11 01:22:00,
2013-08-10 19:32:00,57.0,43.0,-100.00,NE,55,4.0,13.0,60,0.00,,,0.02,37.000000,,2013-08-11 01:32:00,
2013-08-10 20:02:00,56.0,44.0,-100.00,SE,145,8.0,13.0,64,0.00,,,0.02,21.000000,,2013-08-11 02:02:00,
2013-08-10 20:11:00,56.0,44.0,-100.00,SE,145,8.0,13.0,64,0.00,,,0.02,21.000000,,2013-08-11 02:11:00,
2013-08-10 20:22:00,56.0,44.0,-100.00,SE,145,8.0,13.0,64,0.00,,,0.02,21.000000,,2013-08-11 02:22:00,
2013-08-10 20:32:00,56.0,44.0,-100.00,SE,145,8.0,13.0,64,0.00,,,0.02,21.000000,,2013-08-11 02:32:00,
2013-08-10 21:05:00,51.0,46.0,-100.00,SE,127,19.0,33.0,82,0.00,,,0.02,2.000000,,2013-08-11 03:05:00,
2013-08-10 21:16:00,51.0,46.0,-100.00,SE,127,19.0,33.0,82,0.00,,,0.02,2.000000,,2013-08-11 03:16:00,
2013-08-10 21:27:00,51.0,46.0,-100.00,SE,127,19.0,33.0,82,0.00,,,0.02,2.000000,,2013-08-11 03:27:00,
2013-08-10 21:35:00,51.0,46.0,-100.00,SE,127,19.0,33.0,82,0.00,,,0.02,2.000000,,2013-08-11 03:35:00,
2013-08-10 22:01:00,48.0,43.0,-100.00,SSW,199,8.0,31.0,83,0.00,,,0.02,0.000000,,2013-08-11 04:01:00,
2013-08-10 22:12:00,48.0,43.0,-100.00,SSW,199,8.0,31.0,83,0.00,,,0.02,0.000000,,2013-08-11 04:12:00,
2013-08-10 22:22:00,48.0,43.0,-100.00,SSW,199,8.0,31.0,83,0.00,,,0.02,0.000000,,2013-08-11 04:22:00,
2013-08-10 22:32:00,48.0,43.0,-100.00,SSW,199,8.0,31.0,83,0.00,,,0.02,0.000000,,2013-08-11 04:32:00,
2013-08-10 23:02:00,47.0,43.0,-100.00,ESE,105,3.0,12.0,85,0.00,,,0.02,0.000000,,2013-08-11 05:02:00,
2013-08-10 23:17:00,47.0,43.0,-100.00,ESE,105,3.0,12.0,85,0.00,,,0.02,0.000000,,2013-08-11 05:17:00,
2013-08-10 23:23:00,47.0,43.0,-100.00,ESE,105,3.0,12.0,85,0.00,,,0.02,0.000000,,2013-08-11 05:23:00,
2013-08-10 23:35:00,47.0,43.0,-100.00,ESE,105,3.0,12.0,85,0.00,,,0.02,0.000000,,2013-08-11 05:35:00,